createdAt,value
2023-04-27T00:00:33.756Z,54.38
2023-04-27T00:01:33.814Z,53.53
2023-04-27T00:02:33.953Z,53.31
2023-04-27T00:03:34.006Z,52.85
2023-04-27T00:04:34.004Z,53.15
2023-04-27T00:05:33.892Z,52.65
2023-04-27T00:06:33.880Z,53.61
2023-04-27T00:07:33.948Z,54.90
2023-04-27T00:08:33.981Z,54.99
2023-04-27T00:09:34.009Z,55.26
2023-04-27T00:10:34.054Z,53.94
2023-04-27T00:11:34.079Z,53.57
2023-04-27T00:12:34.107Z,53.39
2023-04-27T00:13:34.075Z,54.37
2023-04-27T00:14:34.088Z,53.96
2023-04-27T00:15:34.154Z,53.66
2023-04-27T00:16:34.238Z,53.39
2023-04-27T00:17:34.220Z,52.81
2023-04-27T00:18:34.176Z,52.47
2023-04-27T00:19:34.225Z,52.99
2023-04-27T00:20:34.257Z,52.33
2023-04-27T00:21:34.292Z,51.83
2023-04-27T00:22:34.322Z,51.47
2023-04-27T00:23:34.710Z,51.39
2023-04-27T00:24:34.350Z,51.55
2023-04-27T00:25:34.373Z,51.95
2023-04-27T00:26:34.415Z,52.66
2023-04-27T00:27:34.437Z,51.92
2023-04-27T00:28:34.409Z,53.15
2023-04-27T00:29:34.414Z,52.87
2023-04-27T00:30:34.432Z,52.70
2023-04-27T00:31:34.485Z,53.09
2023-04-27T00:32:34.591Z,53.54
2023-04-27T00:33:34.553Z,52.93
2023-04-27T00:34:34.552Z,52.77
2023-04-27T00:35:34.628Z,52.66
2023-04-27T00:36:34.619Z,52.65
2023-04-27T00:37:34.654Z,52.49
2023-04-27T00:38:34.662Z,52.54
2023-04-27T00:39:34.719Z,52.00
2023-04-27T00:40:34.707Z,51.70
2023-04-27T00:41:34.713Z,51.49
2023-04-27T00:42:34.783Z,51.23
2023-04-27T00:43:34.799Z,51.82
2023-04-27T00:44:34.799Z,51.86
2023-04-27T00:45:34.814Z,52.70
2023-04-27T00:46:34.830Z,52.13
2023-04-27T00:47:34.920Z,52.15
2023-04-27T00:48:34.886Z,54.13
2023-04-27T00:49:34.879Z,54.00
2023-04-27T00:50:34.892Z,53.39
2023-04-27T00:51:34.901Z,53.46
2023-04-27T00:52:34.911Z,53.28
2023-04-27T00:53:34.912Z,52.69
2023-04-27T00:54:34.964Z,52.56
2023-04-27T00:55:34.982Z,52.24
2023-04-27T00:56:34.997Z,51.95
2023-04-27T00:57:35.054Z,51.96
2023-04-27T00:58:35.049Z,52.27
2023-04-27T00:59:35.016Z,52.22
2023-04-27T01:00:35.044Z,52.77
2023-04-27T01:01:35.089Z,52.45
2023-04-27T01:02:35.243Z,52.16
2023-04-27T01:03:35.310Z,51.84
2023-04-27T01:04:35.242Z,51.65
2023-04-27T01:05:35.142Z,51.67
2023-04-27T01:06:35.164Z,51.57
2023-04-27T01:07:35.218Z,52.57
2023-04-27T01:08:36.261Z,52.90
2023-04-27T01:09:35.235Z,52.95
2023-04-27T01:10:35.257Z,52.85
2023-04-27T01:11:35.209Z,52.84
2023-04-27T01:12:35.283Z,52.73
2023-04-27T01:13:35.256Z,52.72
2023-04-27T01:14:35.275Z,52.56
2023-04-27T01:15:35.308Z,52.60
2023-04-27T01:16:35.394Z,52.64
2023-04-27T01:17:35.401Z,53.32
2023-04-27T01:18:35.394Z,53.40
2023-04-27T01:19:35.399Z,53.70
2023-04-27T01:20:35.434Z,53.48
2023-04-27T01:21:35.426Z,53.53
2023-04-27T01:22:35.504Z,54.04
2023-04-27T01:23:35.548Z,53.80
2023-04-27T01:24:35.603Z,54.69
2023-04-27T01:25:35.595Z,54.57
2023-04-27T01:26:35.637Z,54.47
2023-04-27T01:27:35.720Z,55.82
2023-04-27T01:28:35.705Z,55.33
2023-04-27T01:29:35.735Z,57.36
2023-04-27T01:30:35.773Z,56.77
2023-04-27T01:31:35.866Z,56.18
2023-04-27T01:32:35.886Z,55.79
2023-04-27T01:33:35.860Z,56.12
2023-04-27T01:34:35.895Z,55.98
2023-04-27T01:35:35.927Z,55.76
2023-04-27T01:36:35.998Z,55.98
2023-04-27T01:37:36.027Z,55.82
2023-04-27T01:38:36.097Z,56.33
2023-04-27T01:39:36.116Z,55.82
2023-04-27T01:40:36.156Z,56.65
2023-04-27T01:41:36.223Z,56.65
2023-04-27T01:42:36.269Z,56.26
2023-04-27T01:43:36.326Z,56.21
2023-04-27T01:44:36.335Z,57.04
2023-04-27T01:45:36.388Z,56.76
2023-04-27T01:46:36.445Z,55.89
2023-04-27T01:47:36.499Z,56.25
2023-04-27T01:48:36.521Z,57.29
2023-04-27T01:49:36.518Z,57.12
2023-04-27T01:50:36.532Z,57.47
2023-04-27T01:51:36.604Z,58.24
2023-04-27T01:52:36.648Z,57.59
2023-04-27T01:53:36.648Z,56.78
2023-04-27T01:54:36.688Z,55.96
2023-04-27T01:55:36.699Z,55.64
2023-04-27T01:56:36.772Z,55.35
2023-04-27T01:57:36.845Z,55.44
2023-04-27T01:58:36.862Z,57.50
2023-04-27T01:59:36.890Z,57.97
2023-04-27T02:00:36.961Z,57.85
2023-04-27T02:01:37.027Z,57.90
2023-04-27T02:02:37.137Z,58.07
2023-04-27T02:03:37.062Z,57.64
2023-04-27T02:04:37.147Z,56.97
2023-04-27T02:05:37.039Z,57.35
2023-04-27T02:06:37.087Z,57.03
2023-04-27T02:07:37.144Z,56.43
2023-04-27T02:08:37.205Z,56.15
2023-04-27T02:09:37.230Z,56.69
2023-04-27T02:10:37.262Z,56.25
2023-04-27T02:11:37.276Z,55.93
2023-04-27T02:12:37.303Z,57.75
2023-04-27T02:13:37.318Z,58.08
2023-04-27T02:14:37.382Z,57.60
2023-04-27T02:15:37.386Z,57.13
2023-04-27T02:16:37.471Z,58.45
2023-04-27T02:17:37.553Z,58.18
2023-04-27T02:18:37.528Z,57.74
2023-04-27T02:19:37.556Z,57.29
2023-04-27T02:20:37.556Z,57.00
2023-04-27T02:21:37.642Z,57.16
2023-04-27T02:22:37.649Z,57.29
2023-04-27T02:23:37.696Z,56.90
2023-04-27T02:24:37.712Z,57.28
2023-04-27T02:25:37.764Z,57.17
2023-04-27T02:26:37.801Z,57.38
2023-04-27T02:27:37.824Z,57.21
2023-04-27T02:28:37.852Z,57.00
2023-04-27T02:29:37.903Z,57.67
2023-04-27T02:30:37.951Z,56.96
2023-04-27T02:31:37.983Z,57.73
2023-04-27T02:32:37.960Z,57.58
2023-04-27T02:33:38.021Z,58.23
2023-04-27T02:34:38.017Z,57.44
2023-04-27T02:35:38.034Z,56.98
2023-04-27T02:36:37.998Z,56.35
2023-04-27T02:37:38.068Z,56.98
2023-04-27T02:38:38.097Z,57.61
2023-04-27T02:39:38.138Z,56.62
2023-04-27T02:40:38.180Z,56.19
2023-04-27T02:41:38.270Z,55.73
2023-04-27T02:42:38.211Z,55.57
2023-04-27T02:43:38.302Z,55.99
2023-04-27T02:44:38.310Z,55.59
2023-04-27T02:45:38.353Z,54.83
2023-04-27T02:46:38.405Z,54.72
2023-04-27T02:47:38.472Z,54.49
2023-04-27T02:48:38.513Z,54.98
2023-04-27T02:49:38.559Z,57.19
2023-04-27T02:50:38.513Z,57.31
2023-04-27T02:51:38.556Z,57.10
2023-04-27T02:52:38.589Z,55.81
2023-04-27T02:53:38.600Z,55.48
2023-04-27T02:54:38.666Z,55.16
2023-04-27T02:55:38.732Z,55.30
2023-04-27T02:56:38.793Z,55.03
2023-04-27T02:57:38.852Z,55.38
2023-04-27T02:58:38.860Z,54.66
2023-04-27T02:59:38.912Z,54.26
2023-04-27T03:00:38.943Z,54.01
2023-04-27T03:01:39.104Z,54.14
2023-04-27T03:02:39.212Z,54.38
2023-04-27T03:03:39.337Z,54.89
2023-04-27T03:04:39.089Z,54.52
2023-04-27T03:05:39.069Z,55.89
2023-04-27T03:06:39.096Z,55.71
2023-04-27T03:07:39.130Z,55.11
2023-04-27T03:08:39.212Z,55.41
2023-04-27T03:09:39.219Z,54.89
2023-04-27T03:10:39.226Z,54.61
2023-04-27T03:11:39.247Z,54.39
2023-04-27T03:12:39.300Z,54.06
2023-04-27T03:13:39.303Z,53.92
2023-04-27T03:14:39.315Z,53.78
2023-04-27T03:15:39.335Z,53.62
2023-04-27T03:16:39.376Z,53.68
2023-04-27T03:17:39.373Z,53.62
2023-04-27T03:18:39.357Z,54.55
2023-04-27T03:19:39.380Z,54.71
2023-04-27T03:20:39.400Z,54.71
2023-04-27T03:21:39.407Z,54.65
2023-04-27T03:22:39.408Z,54.23
2023-04-27T03:23:39.412Z,55.12
2023-04-27T03:24:39.443Z,54.85
2023-04-27T03:25:39.505Z,55.80
2023-04-27T03:26:39.496Z,55.51
2023-04-27T03:27:39.562Z,55.70
2023-04-27T03:28:39.548Z,54.88
2023-04-27T03:29:39.576Z,54.98
2023-04-27T03:30:39.556Z,55.30
2023-04-27T03:31:39.642Z,55.79
2023-04-27T03:32:39.645Z,56.34
2023-04-27T03:33:39.678Z,57.39
2023-04-27T03:34:39.652Z,57.67
2023-04-27T03:35:39.720Z,57.97
2023-04-27T03:36:39.713Z,58.13
2023-04-27T03:37:39.752Z,59.10
2023-04-27T03:38:39.793Z,60.66
2023-04-27T03:39:39.771Z,58.90
2023-04-27T03:40:39.795Z,59.11
2023-04-27T03:41:39.841Z,58.75
2023-04-27T03:42:39.923Z,59.63
2023-04-27T03:43:39.931Z,60.12
2023-04-27T03:44:40.059Z,59.80
2023-04-27T03:45:40.077Z,59.15
2023-04-27T03:46:40.097Z,58.34
2023-04-27T03:47:40.267Z,58.99
2023-04-27T03:48:40.172Z,58.54
2023-04-27T03:49:40.235Z,58.83
2023-04-27T03:50:40.256Z,58.98
2023-04-27T03:51:40.322Z,59.10
2023-04-27T03:52:40.389Z,58.85
2023-04-27T03:53:40.372Z,59.73
2023-04-27T03:54:40.464Z,59.24
2023-04-27T03:55:40.512Z,59.06
2023-04-27T03:56:40.554Z,59.53
2023-04-27T03:57:40.655Z,59.72
2023-04-27T03:58:40.644Z,60.00
2023-04-27T03:59:40.660Z,59.06
2023-04-27T04:00:40.756Z,59.18
2023-04-27T04:01:40.858Z,59.32
2023-04-27T04:02:40.924Z,59.73
2023-04-27T04:03:40.938Z,59.68
2023-04-27T04:04:41.110Z,59.57
2023-04-27T04:05:40.915Z,59.68
2023-04-27T04:06:40.904Z,59.66
2023-04-27T04:07:40.944Z,59.97
2023-04-27T04:08:41.000Z,59.36
2023-04-27T04:09:41.070Z,59.47
2023-04-27T04:10:41.071Z,58.98
2023-04-27T04:11:41.123Z,59.45
2023-04-27T04:12:41.139Z,59.25
2023-04-27T04:13:41.176Z,59.53
2023-04-27T04:14:41.193Z,59.67
2023-04-27T04:15:41.276Z,59.45
2023-04-27T04:16:41.269Z,59.25
2023-04-27T04:17:41.393Z,60.06
2023-04-27T04:18:41.333Z,60.08
2023-04-27T04:19:41.424Z,59.62
2023-04-27T04:20:41.426Z,59.70
2023-04-27T04:21:41.440Z,60.21
2023-04-27T04:22:41.471Z,61.25
2023-04-27T04:23:41.460Z,61.39
2023-04-27T04:24:41.557Z,62.12
2023-04-27T04:25:41.656Z,62.75
2023-04-27T04:26:41.606Z,62.17
2023-04-27T04:27:41.658Z,62.94
2023-04-27T04:28:41.697Z,63.31
2023-04-27T04:29:41.717Z,63.71
2023-04-27T04:30:41.790Z,64.26
2023-04-27T04:31:41.827Z,64.69
2023-04-27T04:32:41.838Z,64.66
2023-04-27T04:33:41.820Z,64.69
2023-04-27T04:34:41.881Z,65.62
2023-04-27T04:35:41.888Z,67.00
2023-04-27T04:36:41.940Z,68.00
2023-04-27T04:37:42.054Z,68.87
2023-04-27T04:38:41.987Z,68.81
2023-04-27T04:39:42.003Z,67.66
2023-04-27T04:40:43.222Z,68.27
2023-04-27T04:41:42.068Z,68.26
2023-04-27T04:42:42.086Z,67.96
2023-04-27T04:43:42.033Z,67.35
2023-04-27T04:44:42.057Z,69.19
2023-04-27T04:45:42.079Z,70.66
2023-04-27T04:46:42.092Z,70.53
2023-04-27T04:47:42.064Z,71.23
2023-04-27T04:48:42.062Z,70.13
2023-04-27T04:49:42.387Z,70.80
2023-04-27T04:50:42.098Z,70.70
2023-04-27T04:51:42.051Z,71.38
2023-04-27T04:52:42.024Z,70.65
2023-04-27T04:53:41.963Z,71.85
2023-04-27T04:54:41.949Z,71.47
2023-04-27T04:55:42.082Z,71.03
2023-04-27T04:56:41.966Z,71.27
2023-04-27T04:57:41.966Z,70.47
2023-04-27T04:58:41.979Z,69.34
2023-04-27T04:59:41.943Z,70.75
2023-04-27T05:00:41.905Z,69.49
2023-04-27T05:01:41.929Z,69.35
2023-04-27T05:02:43.624Z,69.20
2023-04-27T05:03:42.025Z,71.45
2023-04-27T05:04:41.935Z,71.00
2023-04-27T05:05:41.880Z,70.15
2023-04-27T05:06:41.867Z,72.06
2023-04-27T05:07:41.881Z,71.85
2023-04-27T05:08:41.868Z,71.41
2023-04-27T05:09:41.839Z,71.54
2023-04-27T05:10:41.855Z,70.97
2023-04-27T05:11:41.812Z,71.25
2023-04-27T05:12:41.838Z,70.03
2023-04-27T05:13:41.827Z,69.71
2023-04-27T05:14:41.823Z,70.74
2023-04-27T05:15:41.795Z,70.25
2023-04-27T05:16:41.911Z,70.13
2023-04-27T05:17:41.834Z,69.86
2023-04-27T05:18:42.222Z,71.20
2023-04-27T05:19:41.783Z,70.30
2023-04-27T05:20:41.807Z,69.82
2023-04-27T05:21:41.839Z,67.88
2023-04-27T05:22:41.851Z,69.34
2023-04-27T05:23:41.886Z,68.51
2023-04-27T05:24:41.942Z,69.31
2023-04-27T05:25:42.033Z,68.64
2023-04-27T05:26:41.978Z,69.41
2023-04-27T05:27:42.002Z,69.84
2023-04-27T05:28:42.035Z,69.67
2023-04-27T05:29:42.133Z,70.70
2023-04-27T05:30:42.097Z,71.73
2023-04-27T05:31:42.199Z,70.78
2023-04-27T05:32:42.149Z,70.09
2023-04-27T05:33:42.184Z,69.79
2023-04-27T05:34:42.230Z,70.56
2023-04-27T05:35:42.211Z,71.00
2023-04-27T05:36:42.268Z,71.17
2023-04-27T05:37:42.307Z,72.15
2023-04-27T05:38:42.323Z,71.58
2023-04-27T05:39:42.394Z,71.57
2023-04-27T05:40:42.345Z,69.48
2023-04-27T05:41:42.398Z,68.60
2023-04-27T05:42:42.459Z,67.82
2023-04-27T05:43:42.553Z,68.70
2023-04-27T05:44:42.549Z,67.42
2023-04-27T05:45:42.705Z,68.42
2023-04-27T05:46:42.671Z,67.88
2023-04-27T05:47:42.748Z,67.03
2023-04-27T05:48:42.785Z,67.21
2023-04-27T05:49:42.818Z,67.79
2023-04-27T05:50:42.807Z,68.52
2023-04-27T05:51:42.933Z,68.14
2023-04-27T05:52:42.926Z,69.56
2023-04-27T05:53:43.002Z,70.70
2023-04-27T05:54:43.003Z,70.60
2023-04-27T05:55:42.996Z,69.86
2023-04-27T05:56:43.042Z,69.97
2023-04-27T05:57:43.111Z,69.76
2023-04-27T05:58:43.108Z,69.36
2023-04-27T05:59:43.126Z,69.29
2023-04-27T06:00:43.121Z,68.57
2023-04-27T06:01:43.185Z,68.41
2023-04-27T06:02:43.426Z,68.93
2023-04-27T06:03:43.429Z,68.68
2023-04-27T06:04:51.283Z,69.23
2023-04-27T06:05:50.934Z,70.52
2023-04-27T06:06:43.291Z,70.13
2023-04-27T06:07:43.275Z,68.96
2023-04-27T06:08:44.052Z,69.83
2023-04-27T06:09:43.227Z,69.21
2023-04-27T06:10:43.284Z,69.19
2023-04-27T06:11:43.242Z,69.35
2023-04-27T06:12:45.760Z,69.22
2023-04-27T06:13:43.202Z,69.47
2023-04-27T06:14:50.823Z,69.85
2023-04-27T06:17:02.715Z,69.87
2023-04-27T06:18:02.778Z,69.37
2023-04-27T06:19:02.678Z,67.95
2023-04-27T06:20:02.688Z,67.98
2023-04-27T06:21:02.711Z,66.82
2023-04-27T06:22:02.727Z,66.85
2023-04-27T06:23:02.740Z,67.87
2023-04-27T06:24:04.297Z,66.85
2023-04-27T06:25:02.632Z,66.87
2023-04-27T06:26:02.679Z,65.97
2023-04-27T06:27:02.636Z,66.46
2023-04-27T06:28:02.611Z,66.66
2023-04-27T06:29:02.667Z,66.07
2023-04-27T06:30:02.716Z,64.92
2023-04-27T06:31:02.608Z,64.75
2023-04-27T06:32:02.725Z,66.72
2023-04-27T06:33:02.663Z,65.93
2023-04-27T06:34:02.633Z,66.70
2023-04-27T06:35:02.668Z,67.61
2023-04-27T06:36:02.682Z,69.20
2023-04-27T06:37:02.554Z,70.36
2023-04-27T06:38:02.953Z,68.73
2023-04-27T06:39:02.569Z,70.78
2023-04-27T06:40:02.653Z,69.05
2023-04-27T06:41:02.555Z,69.02
2023-04-27T06:42:02.576Z,68.32
2023-04-27T06:43:02.564Z,68.24
2023-04-27T06:44:02.551Z,67.86
2023-04-27T06:45:02.556Z,67.18
2023-04-27T06:46:02.578Z,66.75
2023-04-27T06:47:02.518Z,66.25
2023-04-27T06:48:02.854Z,66.46
2023-04-27T06:49:02.583Z,66.83
2023-04-27T06:50:02.638Z,66.66
2023-04-27T06:51:03.321Z,65.94
2023-04-27T06:52:02.887Z,67.92
2023-04-27T06:53:02.738Z,67.53
2023-04-27T06:54:02.726Z,66.41
2023-04-27T06:55:02.679Z,66.76
2023-04-27T06:56:02.790Z,66.57
2023-04-27T06:57:02.734Z,67.36
2023-04-27T06:58:02.757Z,66.16
2023-04-27T06:59:02.781Z,66.56
2023-04-27T07:00:02.827Z,64.73
2023-04-27T07:01:02.876Z,66.25
2023-04-27T07:02:02.937Z,68.15
2023-04-27T07:03:03.479Z,67.26
2023-04-27T07:04:02.991Z,66.68
2023-04-27T07:05:03.229Z,65.11
2023-04-27T07:06:03.176Z,67.65
2023-04-27T07:07:03.052Z,66.46
2023-04-27T07:08:05.425Z,67.24
2023-04-27T07:09:06.014Z,68.88
2023-04-27T07:10:04.070Z,68.76
2023-04-27T07:12:22.641Z,65.60
2023-04-27T07:13:22.591Z,66.54
2023-04-27T07:14:22.623Z,65.57
2023-04-27T07:15:22.616Z,65.98
2023-04-27T07:16:22.654Z,65.54
2023-04-27T07:17:23.596Z,64.51
2023-04-27T07:18:22.648Z,64.92
2023-04-27T07:19:22.602Z,65.37
2023-04-27T07:20:22.628Z,65.05
2023-04-27T07:21:22.624Z,65.62
2023-04-27T07:22:22.570Z,65.58
2023-04-27T07:23:22.734Z,65.78
2023-04-27T07:24:22.611Z,64.79
2023-04-27T07:25:22.662Z,64.69
2023-04-27T07:26:22.557Z,62.46
2023-04-27T07:27:22.591Z,62.64
2023-04-27T07:28:22.643Z,62.32
2023-04-27T07:29:27.140Z,63.77
2023-04-27T07:30:22.560Z,62.59
2023-04-27T07:31:22.649Z,62.31
2023-04-27T07:32:22.729Z,62.52
2023-04-27T07:33:22.609Z,62.20
2023-04-27T07:34:22.539Z,61.53
2023-04-27T07:35:22.516Z,62.52
2023-04-27T07:36:23.106Z,62.70
2023-04-27T07:37:22.558Z,60.94
2023-04-27T07:38:22.500Z,61.52
2023-04-27T07:39:22.532Z,60.76
2023-04-27T07:40:22.489Z,60.96
2023-04-27T07:41:22.472Z,60.02
2023-04-27T07:42:22.629Z,60.43
2023-04-27T07:43:23.144Z,59.14
2023-04-27T07:44:22.453Z,60.94
2023-04-27T07:45:23.543Z,61.87
2023-04-27T07:46:22.583Z,60.71
2023-04-27T07:47:22.567Z,60.82
2023-04-27T07:48:22.685Z,60.81
2023-04-27T07:49:22.903Z,60.35
2023-04-27T07:50:22.596Z,61.88
2023-04-27T07:51:22.609Z,61.15
2023-04-27T07:52:22.687Z,59.66
2023-04-27T07:53:22.617Z,58.48
2023-04-27T07:54:22.696Z,58.78
2023-04-27T07:55:22.685Z,58.45
2023-04-27T07:56:22.702Z,59.40
2023-04-27T07:57:22.740Z,60.84
2023-04-27T07:58:22.744Z,59.52
2023-04-27T07:59:22.719Z,59.46
2023-04-27T08:00:22.877Z,61.30
2023-04-27T08:01:22.948Z,62.29
2023-04-27T08:02:23.072Z,60.58
2023-04-27T08:03:23.393Z,59.97
2023-04-27T08:04:23.217Z,61.44
2023-04-27T08:05:23.777Z,61.84
2023-04-27T08:06:23.604Z,59.73
2023-04-27T08:07:24.091Z,60.20
2023-04-27T08:08:23.142Z,59.92
2023-04-27T08:09:23.043Z,59.16
2023-04-27T08:10:23.027Z,59.99
2023-04-27T08:11:23.088Z,59.83
2023-04-27T08:12:23.128Z,59.28
2023-04-27T08:13:24.816Z,59.89
2023-04-27T08:14:23.225Z,58.88
2023-04-27T08:15:23.264Z,58.82
2023-04-27T08:16:23.330Z,57.98
2023-04-27T08:17:23.379Z,56.43
2023-04-27T08:18:23.367Z,57.44
2023-04-27T08:19:23.318Z,57.70
2023-04-27T08:20:23.490Z,57.83
2023-04-27T08:21:23.436Z,57.64
2023-04-27T08:22:23.482Z,57.10
2023-04-27T08:23:23.656Z,57.45
2023-04-27T08:24:23.518Z,56.46
2023-04-27T08:25:23.593Z,56.83
2023-04-27T08:26:25.605Z,55.63
2023-04-27T08:27:23.613Z,55.92
2023-04-27T08:28:23.562Z,52.89
2023-04-27T08:29:27.992Z,54.08
2023-04-27T08:30:24.554Z,53.48
2023-04-27T08:31:23.549Z,53.54
2023-04-27T08:32:24.119Z,54.65
2023-04-27T08:33:23.722Z,53.79
2023-04-27T08:34:23.697Z,54.50
2023-04-27T08:35:23.514Z,54.90
2023-04-27T08:36:23.516Z,52.45
2023-04-27T08:37:23.432Z,53.85
2023-04-27T08:38:25.585Z,54.28
2023-04-27T08:39:23.460Z,54.96
2023-04-27T08:40:23.508Z,57.58
2023-04-27T08:41:23.430Z,57.18
2023-04-27T08:42:23.486Z,55.58
2023-04-27T08:43:23.542Z,54.72
2023-04-27T08:44:23.572Z,56.84
2023-04-27T08:45:23.580Z,54.44
2023-04-27T08:46:23.687Z,52.96
2023-04-27T08:47:31.398Z,55.46
2023-04-27T08:48:24.684Z,53.86
2023-04-27T08:49:23.722Z,56.15
2023-04-27T08:50:23.602Z,52.56
2023-04-27T08:51:23.576Z,52.47
2023-04-27T08:52:23.631Z,51.61
2023-04-27T08:53:23.553Z,54.94
2023-04-27T08:54:23.567Z,55.71
2023-04-27T08:55:23.549Z,56.30
2023-04-27T08:56:23.535Z,55.05
2023-04-27T08:57:23.582Z,58.45
2023-04-27T08:58:23.566Z,57.94
2023-04-27T08:59:23.619Z,57.11
2023-04-27T09:00:23.543Z,56.70
2023-04-27T09:01:23.598Z,54.28
2023-04-27T09:02:23.599Z,53.57
2023-04-27T09:03:23.827Z,51.01
2023-04-27T09:04:24.025Z,51.42
2023-04-27T09:05:23.759Z,51.81
2023-04-27T09:06:23.766Z,53.51
2023-04-27T09:07:23.780Z,53.73
2023-04-27T09:08:23.816Z,53.24
2023-04-27T09:09:23.922Z,54.06
2023-04-27T09:10:23.861Z,54.37
2023-04-27T09:11:23.868Z,53.15
2023-04-27T09:12:23.876Z,54.07
2023-04-27T09:13:23.879Z,53.54
2023-04-27T09:14:23.910Z,52.13
2023-04-27T09:15:23.946Z,56.01
2023-04-27T09:16:24.063Z,54.04
2023-04-27T09:17:23.981Z,56.31
2023-04-27T09:18:24.051Z,54.55
2023-04-27T09:19:24.059Z,51.82
2023-04-27T09:20:24.105Z,52.72
2023-04-27T09:21:24.149Z,51.30
2023-04-27T09:22:24.182Z,49.19
2023-04-27T09:23:24.188Z,48.84
2023-04-27T09:24:24.165Z,49.31
2023-04-27T09:25:24.173Z,48.25
2023-04-27T09:26:24.251Z,47.80
2023-04-27T09:27:24.262Z,46.26
2023-04-27T09:28:24.321Z,48.09
2023-04-27T09:29:24.312Z,48.05
2023-04-27T09:30:24.311Z,51.46
2023-04-27T09:31:24.433Z,53.90
2023-04-27T09:32:24.498Z,54.39
2023-04-27T09:33:24.486Z,52.84
2023-04-27T09:34:24.505Z,49.52
2023-04-27T09:35:24.558Z,48.82
2023-04-27T09:36:25.010Z,48.40
2023-04-27T09:37:24.549Z,48.89
2023-04-27T09:38:24.582Z,47.26
2023-04-27T09:39:24.646Z,47.90
2023-04-27T09:40:24.648Z,48.34
2023-04-27T09:41:24.676Z,46.73
2023-04-27T09:42:24.704Z,45.40
2023-04-27T09:43:24.691Z,43.83
2023-04-27T09:44:25.185Z,43.34
2023-04-27T09:45:24.798Z,43.18
2023-04-27T09:46:24.867Z,40.35
2023-04-27T09:47:25.019Z,40.38
2023-04-27T09:48:24.868Z,42.98
2023-04-27T09:49:25.160Z,41.41
2023-04-27T09:50:24.927Z,42.96
2023-04-27T09:51:24.998Z,43.47
2023-04-27T09:52:25.074Z,41.38
2023-04-27T09:53:25.684Z,40.81
2023-04-27T09:54:25.215Z,42.89
2023-04-27T09:55:25.083Z,41.98
2023-04-27T09:56:25.151Z,40.52
2023-04-27T09:57:25.113Z,39.67
2023-04-27T09:58:25.189Z,42.48
2023-04-27T09:59:25.280Z,40.93
2023-04-27T10:00:25.236Z,38.02
2023-04-27T10:01:25.403Z,39.67
2023-04-27T10:02:25.978Z,42.21
2023-04-27T10:03:25.444Z,42.78
2023-04-27T10:04:25.739Z,45.10
2023-04-27T10:05:25.382Z,45.01
2023-04-27T10:06:25.380Z,42.87
2023-04-27T10:07:25.446Z,42.10
2023-04-27T10:08:25.491Z,42.91
2023-04-27T10:09:25.589Z,40.53
2023-04-27T10:10:25.506Z,41.42
2023-04-27T10:11:26.172Z,43.22
2023-04-27T10:12:25.768Z,42.95
2023-04-27T10:13:25.735Z,41.65
2023-04-27T10:14:25.703Z,41.10
2023-04-27T10:15:25.762Z,40.23
2023-04-27T10:16:25.872Z,39.14
2023-04-27T10:17:25.808Z,38.90
2023-04-27T10:18:26.163Z,39.58
2023-04-27T10:19:25.906Z,41.04
2023-04-27T10:20:25.906Z,40.52
2023-04-27T10:21:25.912Z,41.62
2023-04-27T10:22:25.957Z,45.09
2023-04-27T10:23:25.961Z,43.79
2023-04-27T10:24:26.026Z,42.55
2023-04-27T10:25:26.037Z,42.19
2023-04-27T10:26:26.080Z,42.40
2023-04-27T10:27:26.046Z,42.67
2023-04-27T10:28:26.111Z,40.87
2023-04-27T10:29:26.197Z,41.02
2023-04-27T10:30:26.211Z,43.49
2023-04-27T10:31:26.283Z,46.31
2023-04-27T10:32:26.355Z,48.18
2023-04-27T10:33:26.306Z,47.08
2023-04-27T10:34:26.360Z,44.75
2023-04-27T10:35:26.477Z,44.13
2023-04-27T10:36:26.470Z,43.05
2023-04-27T10:37:26.449Z,41.72
2023-04-27T10:38:26.382Z,39.54
2023-04-27T10:39:39.707Z,41.14
2023-04-27T10:40:27.430Z,39.47
2023-04-27T10:41:26.397Z,36.26
2023-04-27T10:42:26.412Z,36.74
2023-04-27T10:43:26.410Z,36.71
2023-04-27T10:44:26.663Z,37.47
2023-04-27T10:45:27.493Z,36.29
2023-04-27T10:46:26.426Z,35.22
2023-04-27T10:47:26.377Z,37.45
2023-04-27T10:48:26.424Z,38.89
2023-04-27T10:49:26.337Z,36.46
2023-04-27T10:50:26.424Z,36.52
2023-04-27T10:51:26.361Z,36.18
2023-04-27T10:52:26.348Z,35.98
2023-04-27T10:53:26.296Z,35.27
2023-04-27T10:54:26.334Z,36.00
2023-04-27T10:55:26.303Z,35.33
2023-04-27T10:56:26.285Z,36.83
2023-04-27T10:57:26.296Z,35.44
2023-04-27T10:58:34.644Z,34.57
2023-04-27T10:59:27.275Z,34.07
2023-04-27T11:00:26.317Z,34.14
2023-04-27T11:01:26.313Z,34.93
2023-04-27T11:02:26.385Z,36.27
2023-04-27T11:03:26.294Z,34.65
2023-04-27T11:04:26.277Z,33.19
2023-04-27T11:05:26.304Z,35.92
2023-04-27T11:06:26.259Z,36.54
2023-04-27T11:07:26.368Z,35.58
2023-04-27T11:08:26.260Z,38.60
2023-04-27T11:09:26.291Z,36.11
2023-04-27T11:10:26.263Z,36.48
2023-04-27T11:11:26.357Z,36.85
2023-04-27T11:12:26.328Z,34.88
2023-04-27T11:13:26.356Z,35.14
2023-04-27T11:14:26.392Z,34.99
2023-04-27T11:15:26.410Z,34.37
2023-04-27T11:16:26.563Z,34.45
2023-04-27T11:17:26.512Z,32.43
2023-04-27T11:18:26.644Z,35.44
2023-04-27T11:19:26.642Z,34.25
2023-04-27T11:20:26.710Z,34.73
2023-04-27T11:21:26.630Z,32.76
2023-04-27T11:22:26.679Z,33.44
2023-04-27T11:23:26.750Z,33.07
2023-04-27T11:24:26.742Z,31.45
2023-04-27T11:25:26.788Z,33.97
2023-04-27T11:26:26.896Z,34.83
2023-04-27T11:27:26.894Z,34.27
2023-04-27T11:28:26.867Z,34.53
2023-04-27T11:29:27.208Z,33.97
2023-04-27T11:30:26.998Z,33.48
2023-04-27T11:31:27.032Z,33.36
2023-04-27T11:32:27.015Z,33.17
2023-04-27T11:33:27.080Z,33.48
2023-04-27T11:34:27.161Z,34.08
2023-04-27T11:35:27.035Z,33.81
2023-04-27T11:36:27.089Z,35.68
2023-04-27T11:37:27.150Z,37.36
2023-04-27T11:38:27.145Z,37.31
2023-04-27T11:39:27.269Z,37.18
2023-04-27T11:40:27.232Z,37.37
2023-04-27T11:41:27.209Z,38.39
2023-04-27T11:42:27.292Z,40.46
2023-04-27T11:43:27.311Z,42.67
2023-04-27T11:44:27.329Z,40.74
2023-04-27T11:45:27.317Z,39.65
2023-04-27T11:46:27.361Z,38.97
2023-04-27T11:47:27.459Z,37.68
2023-04-27T11:48:27.431Z,36.25
2023-04-27T11:49:27.498Z,38.83
2023-04-27T11:50:27.560Z,38.23
2023-04-27T11:51:27.600Z,37.74
2023-04-27T11:52:27.608Z,36.15
2023-04-27T11:53:27.660Z,36.02
2023-04-27T11:54:27.737Z,35.58
2023-04-27T11:55:27.807Z,33.70
2023-04-27T11:56:27.812Z,34.15
2023-04-27T11:57:27.789Z,31.72
2023-04-27T11:58:27.830Z,30.97
2023-04-27T11:59:27.823Z,31.05
2023-04-27T12:00:27.874Z,32.94
2023-04-27T12:01:36.950Z,32.05
2023-04-27T12:02:29.098Z,33.67
2023-04-27T12:03:28.179Z,35.19
2023-04-27T12:04:28.064Z,34.33
2023-04-27T12:05:28.019Z,36.78
2023-04-27T12:06:33.006Z,36.81
2023-04-27T12:07:28.837Z,37.07
2023-04-27T12:08:27.871Z,34.90
2023-04-27T12:09:27.887Z,32.39
2023-04-27T12:10:27.840Z,32.38
2023-04-27T12:11:27.844Z,32.60
2023-04-27T12:12:27.818Z,32.45
2023-04-27T12:13:27.849Z,32.98
2023-04-27T12:14:27.820Z,32.96
2023-04-27T12:15:27.817Z,32.32
2023-04-27T12:16:27.810Z,31.97
2023-04-27T12:17:27.837Z,31.21
2023-04-27T12:18:27.790Z,30.61
2023-04-27T12:19:27.761Z,28.66
2023-04-27T12:20:27.857Z,29.63
2023-04-27T12:21:27.867Z,31.00
2023-04-27T12:22:27.875Z,31.71
2023-04-27T12:23:27.869Z,32.43
2023-04-27T12:24:27.920Z,33.40
2023-04-27T12:25:27.992Z,34.47
2023-04-27T12:26:28.015Z,35.07
2023-04-27T12:27:28.037Z,35.30
2023-04-27T12:28:28.054Z,36.10
2023-04-27T12:29:28.053Z,34.63
2023-04-27T12:30:28.078Z,34.84
2023-04-27T12:31:28.246Z,34.52
2023-04-27T12:32:28.154Z,34.42
2023-04-27T12:33:28.201Z,35.45
2023-04-27T12:34:28.494Z,34.18
2023-04-27T12:35:28.283Z,33.18
2023-04-27T12:36:28.251Z,33.06
2023-04-27T12:37:28.293Z,32.69
2023-04-27T12:38:28.358Z,32.22
2023-04-27T12:39:28.395Z,33.43
2023-04-27T12:40:28.483Z,32.51
2023-04-27T12:41:28.459Z,32.04
2023-04-27T12:42:28.438Z,32.11
2023-04-27T12:43:28.536Z,32.03
2023-04-27T12:44:28.512Z,31.71
2023-04-27T12:45:28.595Z,31.24
2023-04-27T12:46:28.608Z,32.34
2023-04-27T12:48:29.605Z,31.89
2023-04-27T12:49:28.606Z,33.51
2023-04-27T12:50:28.613Z,33.42
2023-04-27T12:51:28.581Z,33.37
2023-04-27T12:52:28.576Z,33.24
2023-04-27T12:53:28.588Z,33.33
2023-04-27T12:54:28.613Z,33.09
2023-04-27T12:56:28.537Z,36.26
2023-04-27T12:57:28.522Z,36.15